createdAt,value
2016-08-12T00:00:03.018Z,54.1
2016-08-12T00:00:13.011Z,54
2016-08-12T00:00:23.015Z,53.9
2016-08-12T00:00:33.012Z,54.1
2016-08-12T00:00:43.007Z,54.3
2016-08-12T00:00:53.006Z,54.2
2016-08-12T00:01:03.008Z,54.1
2016-08-12T00:01:13.003Z,54.1
2016-08-12T00:01:23.001Z,54.2
2016-08-12T00:01:32.998Z,54.2
2016-08-12T00:01:42.997Z,54.3
2016-08-12T00:01:52.998Z,54
2016-08-12T00:02:02.987Z,54.2
2016-08-12T00:02:12.991Z,54.1
2016-08-12T00:02:22.987Z,54
2016-08-12T00:02:32.982Z,54.2
2016-08-12T00:02:52.978Z,54
2016-08-12T00:03:02.976Z,54.3
2016-08-12T00:03:12.975Z,54.2
2016-08-12T00:03:22.971Z,54.3
2016-08-12T00:03:32.977Z,54.4
2016-08-12T00:03:42.969Z,54.7
2016-08-12T00:03:52.240Z,54.4
2016-08-12T00:04:02.961Z,54.4
2016-08-12T00:04:12.964Z,54.4
2016-08-12T00:04:22.955Z,54.5
2016-08-12T00:04:32.957Z,54.5
2016-08-12T00:04:42.954Z,54.3
2016-08-12T00:04:52.956Z,54.4
2016-08-12T00:05:02.950Z,54.5
2016-08-12T00:05:12.947Z,54.4
2016-08-12T00:05:22.945Z,54.2
2016-08-12T00:05:32.940Z,54.2
2016-08-12T00:05:42.942Z,54.5
2016-08-12T00:05:52.940Z,54.7
2016-08-12T00:06:02.210Z,54.6
2016-08-12T00:06:12.936Z,54.5
2016-08-12T00:06:22.929Z,54.5
2016-08-12T00:06:32.928Z,54.5
2016-08-12T00:06:42.925Z,54.5
2016-08-12T00:06:52.927Z,54.9
2016-08-12T00:07:02.927Z,54.8
2016-08-12T00:07:12.190Z,54.7
2016-08-12T00:07:22.929Z,54.6
2016-08-12T00:07:32.189Z,54.8
2016-08-12T00:07:42.915Z,54.4
2016-08-12T00:07:52.912Z,54.7
2016-08-12T00:08:02.912Z,54.5
2016-08-12T00:08:12.908Z,54.3
2016-08-12T00:08:22.182Z,54.2
2016-08-12T00:08:32.909Z,54.5
2016-08-12T00:08:42.912Z,54.3
2016-08-12T00:08:52.897Z,54.5
2016-08-12T00:09:02.898Z,54.6
2016-08-12T00:09:12.903Z,54.4
2016-08-12T00:09:22.891Z,54.3
2016-08-12T00:09:32.892Z,54.4
2016-08-12T00:09:42.889Z,54.4
2016-08-12T00:09:52.888Z,54.4
2016-08-12T00:10:02.883Z,54.4
2016-08-12T00:10:12.894Z,54.7
2016-08-12T00:10:22.881Z,54.6
2016-08-12T00:10:32.877Z,54.3
2016-08-12T00:10:42.879Z,54.7
2016-08-12T00:10:52.885Z,54.7
2016-08-12T00:11:02.870Z,54.4
2016-08-12T00:11:12.866Z,54.3
2016-08-12T00:11:22.869Z,54.8
2016-08-12T00:11:32.865Z,54.7
2016-08-12T00:11:42.863Z,54.9
2016-08-12T00:11:52.874Z,54.6
2016-08-12T00:12:02.857Z,54.9
2016-08-12T00:12:12.854Z,55
2016-08-12T00:12:22.127Z,54.7
2016-08-12T00:12:32.851Z,54.6
2016-08-12T00:12:42.850Z,54.5
2016-08-12T00:12:52.847Z,54.6
2016-08-12T00:13:02.845Z,54.4
2016-08-12T00:13:12.841Z,54.7
2016-08-12T00:13:22.839Z,54.5
2016-08-12T00:13:32.839Z,54.6
2016-08-12T00:13:42.835Z,54.9
2016-08-12T00:13:52.107Z,55
2016-08-12T00:14:02.830Z,54.6
2016-08-12T00:14:12.826Z,54.7
2016-08-12T00:14:22.826Z,54.7
2016-08-12T00:14:32.824Z,54.5
2016-08-12T00:14:42.826Z,54.6
2016-08-12T00:14:52.837Z,54.6
2016-08-12T00:15:02.819Z,54.7
2016-08-12T00:15:12.816Z,54.8
2016-08-12T00:15:22.814Z,54.6
2016-08-12T00:15:32.811Z,54.7
2016-08-12T00:15:42.809Z,54.7
2016-08-12T00:15:52.814Z,54.6
2016-08-12T00:16:02.805Z,54.9
2016-08-12T00:16:12.803Z,54.6
2016-08-12T00:16:22.811Z,54.7
2016-08-12T00:16:32.798Z,54.7
2016-08-12T00:16:42.797Z,54.6
2016-08-12T00:16:52.800Z,54.7
2016-08-12T00:17:02.790Z,54.6
2016-08-12T00:17:12.790Z,54.6
2016-08-12T00:17:22.787Z,54.6
2016-08-12T00:17:32.787Z,54.7
2016-08-12T00:17:42.788Z,54.9
2016-08-12T00:18:02.781Z,54.9
2016-08-12T00:18:12.776Z,54.6
2016-08-12T00:18:22.777Z,54.7
2016-08-12T00:18:32.772Z,54.7
2016-08-12T00:18:42.772Z,54.6
2016-08-12T00:18:52.766Z,54.9
2016-08-12T00:19:02.765Z,54.7
2016-08-12T00:19:12.759Z,54.7
2016-08-12T00:19:22.766Z,54.7
2016-08-12T00:19:32.759Z,54.7
2016-08-12T00:19:51.846Z,54.7
2016-08-12T00:20:02.024Z,54.5
2016-08-12T00:20:12.747Z,54.6
2016-08-12T00:20:22.747Z,54.7
2016-08-12T00:20:32.019Z,54.7
2016-08-12T00:20:42.012Z,55.1
2016-08-12T00:20:52.739Z,55
2016-08-12T00:21:02.739Z,55
2016-08-12T00:21:12.738Z,54.6
2016-08-12T00:21:22.743Z,54.7
2016-08-12T00:21:32.005Z,54.9
2016-08-12T00:21:42.731Z,54.7
2016-08-12T00:21:52.729Z,54.8
2016-08-12T00:22:02.732Z,54.5
2016-08-12T00:22:12.725Z,54.7
2016-08-12T00:22:22.718Z,54.7
2016-08-12T00:22:32.719Z,54.7
2016-08-12T00:22:42.722Z,54.7
2016-08-12T00:22:52.717Z,54.7
2016-08-12T00:23:02.709Z,54.7
2016-08-12T00:23:12.710Z,54.6
2016-08-12T00:23:21.977Z,54.6
2016-08-12T00:23:32.707Z,54.7
2016-08-12T00:23:42.702Z,55
2016-08-12T00:23:52.701Z,55
2016-08-12T00:24:01.973Z,54.6
2016-08-12T00:24:12.700Z,54.8
2016-08-12T00:24:21.248Z,54.7
2016-08-12T00:24:32.690Z,54.5
2016-08-12T00:24:42.691Z,54.5
2016-08-12T00:24:51.976Z,54.8
2016-08-12T00:25:02.686Z,54.8
2016-08-12T00:25:11.960Z,54.7
2016-08-12T00:25:22.681Z,54.6
2016-08-12T00:25:32.679Z,54.7
2016-08-12T00:25:42.680Z,54.9
2016-08-12T00:25:52.684Z,54.7
2016-08-12T00:26:02.676Z,54.7
2016-08-12T00:26:12.669Z,54.7
2016-08-12T00:26:22.668Z,54.7
2016-08-12T00:26:32.666Z,54.5
2016-08-12T00:26:42.664Z,54.6
2016-08-12T00:26:52.659Z,54.6
2016-08-12T00:27:02.660Z,54.7
2016-08-12T00:27:12.655Z,54.7
2016-08-12T00:27:22.657Z,54.7
2016-08-12T00:27:31.922Z,54.7
2016-08-12T00:27:42.650Z,54.7
2016-08-12T00:27:52.653Z,54.5
2016-08-12T00:28:02.649Z,54.7
2016-08-12T00:28:12.650Z,54.6
2016-08-12T00:28:22.641Z,54.7
2016-08-12T00:28:32.642Z,54.7
2016-08-12T00:28:41.919Z,54.7
2016-08-12T00:28:52.634Z,54.7
2016-08-12T00:29:02.631Z,54.7
2016-08-12T00:29:12.632Z,54.7
2016-08-12T00:29:22.628Z,54.7
2016-08-12T00:29:32.626Z,54.7
2016-08-12T00:29:42.622Z,54.6
2016-08-12T00:29:52.629Z,54.7
2016-08-12T00:30:02.617Z,54.7
2016-08-12T00:30:12.615Z,54.7
2016-08-12T00:30:21.904Z,54.5
2016-08-12T00:30:32.611Z,54.5
2016-08-12T00:30:42.607Z,54.8
2016-08-12T00:30:52.612Z,54.5
2016-08-12T00:31:02.605Z,54.7
2016-08-12T00:31:12.600Z,54.6
2016-08-12T00:31:22.601Z,54.7
2016-08-12T00:31:32.597Z,54.7
2016-08-12T00:31:42.599Z,54.8
2016-08-12T00:31:52.604Z,54.6
2016-08-12T00:32:02.598Z,54.7
2016-08-12T00:32:12.593Z,54.5
2016-08-12T00:32:22.600Z,54.7
2016-08-12T00:32:32.595Z,54.5
2016-08-12T00:32:42.588Z,54.6
2016-08-12T00:33:02.580Z,54.6
2016-08-12T00:33:12.580Z,54.7
2016-08-12T00:33:22.578Z,54.7
2016-08-12T00:33:32.590Z,54.7
2016-08-12T00:33:42.572Z,54.7
2016-08-12T00:33:51.113Z,54.7
2016-08-12T00:34:02.568Z,54.6
2016-08-12T00:34:12.578Z,54.8
2016-08-12T00:34:22.568Z,54.7
2016-08-12T00:34:32.561Z,54.7
2016-08-12T00:34:42.560Z,54.7
2016-08-12T00:34:52.554Z,54.7
2016-08-12T00:35:01.839Z,54.5
2016-08-12T00:35:12.551Z,54.3
2016-08-12T00:35:22.550Z,54.7
2016-08-12T00:35:32.546Z,54.7
2016-08-12T00:35:42.546Z,54.7
2016-08-12T00:35:52.541Z,54.7
2016-08-12T00:36:02.539Z,54.7
2016-08-12T00:36:12.537Z,54.7
2016-08-12T00:36:22.538Z,54.6
2016-08-12T00:36:32.540Z,54.7
2016-08-12T00:36:42.532Z,54.7
2016-08-12T00:36:52.533Z,54.7
2016-08-12T00:37:02.528Z,54.8
2016-08-12T00:37:12.527Z,54.6
2016-08-12T00:37:22.524Z,54.7
2016-08-12T00:37:32.523Z,54.7
2016-08-12T00:37:42.519Z,54.7
2016-08-12T00:37:52.515Z,54.9
2016-08-12T00:38:02.518Z,54.7
2016-08-12T00:38:12.512Z,54.7
2016-08-12T00:38:22.511Z,54.6
2016-08-12T00:38:32.506Z,54.8
2016-08-12T00:38:42.509Z,54.5
2016-08-12T00:38:52.502Z,54.5
2016-08-12T00:39:02.501Z,54.7
2016-08-12T00:39:12.496Z,54.8
2016-08-12T00:39:22.494Z,54.7
2016-08-12T00:39:31.766Z,54.7
2016-08-12T00:39:42.494Z,54.7
2016-08-12T00:39:52.493Z,54.6
2016-08-12T00:40:02.490Z,54.7
2016-08-12T00:40:12.487Z,54.8
2016-08-12T00:40:22.485Z,54.7
2016-08-12T00:40:32.479Z,54.9
2016-08-12T00:40:42.486Z,55.2
2016-08-12T00:40:52.479Z,54.8
2016-08-12T00:41:02.472Z,54.8
2016-08-12T00:41:12.472Z,54.8
2016-08-12T00:41:22.470Z,55.1
2016-08-12T00:41:32.468Z,54.7
2016-08-12T00:41:42.467Z,54.7
2016-08-12T00:41:52.464Z,54.7
2016-08-12T00:42:02.460Z,54.6
2016-08-12T00:42:12.459Z,54.7
2016-08-12T00:42:22.456Z,54.7
2016-08-12T00:42:32.456Z,55.3
2016-08-12T00:42:42.454Z,55
2016-08-12T00:42:52.452Z,55
2016-08-12T00:43:02.447Z,55.2
2016-08-12T00:43:12.446Z,55.1
2016-08-12T00:43:22.443Z,54.8
2016-08-12T00:43:32.441Z,55.3
2016-08-12T00:43:42.436Z,55.1
2016-08-12T00:43:52.438Z,55
2016-08-12T00:44:02.436Z,55.2
2016-08-12T00:44:12.434Z,54.9
2016-08-12T00:44:22.430Z,55.2
2016-08-12T00:44:32.427Z,55.2
2016-08-12T00:44:42.425Z,54.9
2016-08-12T00:44:52.423Z,55.3
2016-08-12T00:45:02.423Z,55
2016-08-12T00:45:12.421Z,55
2016-08-12T00:45:22.420Z,55
2016-08-12T00:45:32.415Z,55.1
2016-08-12T00:45:42.413Z,54.9
2016-08-12T00:45:52.413Z,54.9
2016-08-12T00:46:02.409Z,54.9
2016-08-12T00:46:12.406Z,54.9
2016-08-12T00:46:22.404Z,54.9
2016-08-12T00:46:32.401Z,55.3
2016-08-12T00:46:42.404Z,55
2016-08-12T00:46:52.398Z,54.8
2016-08-12T00:47:02.402Z,55.1
2016-08-12T00:47:12.395Z,54.9
2016-08-12T00:47:22.391Z,54.9
2016-08-12T00:47:32.388Z,54.9
2016-08-12T00:47:42.388Z,55
2016-08-12T00:47:52.401Z,54.9
2016-08-12T00:48:12.378Z,55.3
2016-08-12T00:48:22.378Z,55.2
2016-08-12T00:48:32.372Z,55
2016-08-12T00:48:42.374Z,55
2016-08-12T00:48:52.374Z,55
2016-08-12T00:49:02.367Z,55.1
2016-08-12T00:49:12.368Z,54.9
2016-08-12T00:49:22.364Z,54.9
2016-08-12T00:49:32.361Z,54.9
2016-08-12T00:49:42.364Z,54.9
2016-08-12T00:49:52.359Z,54.7
2016-08-12T00:50:01.628Z,55
2016-08-12T00:50:12.355Z,55
2016-08-12T00:50:22.353Z,55.1
2016-08-12T00:50:32.347Z,55.1
2016-08-12T00:50:42.349Z,54.9
2016-08-12T00:50:52.351Z,54.7
2016-08-12T00:51:02.343Z,54.9
2016-08-12T00:51:11.609Z,55
2016-08-12T00:51:22.338Z,54.9
2016-08-12T00:51:32.335Z,54.7
2016-08-12T00:51:42.331Z,54.9
2016-08-12T00:51:52.331Z,54.9
2016-08-12T00:52:02.331Z,55
2016-08-12T00:52:12.330Z,54.9
2016-08-12T00:52:22.328Z,55.1
2016-08-12T00:52:32.324Z,55.2
2016-08-12T00:52:42.325Z,55.2
2016-08-12T00:52:52.319Z,54.9
2016-08-12T00:53:02.320Z,54.9
2016-08-12T00:53:12.315Z,54.9
2016-08-12T00:53:22.312Z,55
2016-08-12T00:53:32.315Z,54.8
2016-08-12T00:53:41.578Z,54.8
2016-08-12T00:53:51.580Z,54.7
2016-08-12T00:54:02.303Z,54.7
2016-08-12T00:54:11.574Z,55
2016-08-12T00:54:22.300Z,55.1
2016-08-12T00:54:31.570Z,55
2016-08-12T00:54:42.290Z,54.8
2016-08-12T00:54:52.292Z,55.3
2016-08-12T00:55:02.342Z,55.3
2016-08-12T00:55:12.289Z,55
2016-08-12T00:55:22.283Z,55.1
2016-08-12T00:55:31.555Z,54.9
2016-08-12T00:55:42.283Z,55
2016-08-12T00:55:52.279Z,55.1
2016-08-12T00:56:02.281Z,55.2
2016-08-12T00:56:12.278Z,54.9
2016-08-12T00:56:22.277Z,55
2016-08-12T00:56:32.268Z,55
2016-08-12T00:56:42.269Z,55.1
2016-08-12T00:56:52.271Z,55
2016-08-12T00:57:02.264Z,55.3
2016-08-12T00:57:12.261Z,55.2
2016-08-12T00:57:22.258Z,55.1
2016-08-12T00:57:32.263Z,55.1
2016-08-12T00:57:42.256Z,55
2016-08-12T00:57:52.252Z,55.1
2016-08-12T00:58:02.260Z,55.1
2016-08-12T00:58:11.517Z,55.1
2016-08-12T00:58:22.244Z,55.1
2016-08-12T00:58:32.244Z,54.9
2016-08-12T00:58:41.512Z,54.9
2016-08-12T00:58:52.240Z,55.1
2016-08-12T00:59:02.243Z,55.1
2016-08-12T00:59:12.239Z,55.4
2016-08-12T00:59:22.235Z,55.4
2016-08-12T00:59:32.232Z,55.2
2016-08-12T00:59:42.233Z,55.6
2016-08-12T00:59:52.224Z,55.5
2016-08-12T01:00:02.222Z,55.5
2016-08-12T01:00:12.222Z,55.3
2016-08-12T01:00:22.221Z,55.5
2016-08-12T01:00:32.220Z,55
2016-08-12T01:00:42.220Z,55.3
2016-08-12T01:00:52.212Z,55.1
2016-08-12T01:01:02.210Z,55.1
2016-08-12T01:01:12.214Z,55
2016-08-12T01:01:22.212Z,55.1
2016-08-12T01:01:32.206Z,55.5
2016-08-12T01:01:42.202Z,55.2
2016-08-12T01:01:52.198Z,55.4
2016-08-12T01:02:02.199Z,55.5
2016-08-12T01:02:12.196Z,55.3
2016-08-12T01:02:22.197Z,55.4
2016-08-12T01:02:31.466Z,55.5
2016-08-12T01:02:41.457Z,54.9
2016-08-12T01:02:52.189Z,55.1
2016-08-12T01:03:01.458Z,55.1
2016-08-12T01:03:12.186Z,55
2016-08-12T01:03:32.181Z,55.5
2016-08-12T01:03:42.176Z,55.3
2016-08-12T01:03:52.173Z,55.3
2016-08-12T01:04:02.171Z,55.4
2016-08-12T01:04:12.170Z,55.3
2016-08-12T01:04:22.169Z,55.3
2016-08-12T01:04:32.165Z,55.3
2016-08-12T01:04:41.434Z,55.5
2016-08-12T01:04:52.160Z,55.5
2016-08-12T01:05:02.158Z,55.5
2016-08-12T01:05:12.160Z,55.2
2016-08-12T01:05:22.154Z,55.5
2016-08-12T01:05:32.154Z,55.1
2016-08-12T01:05:42.148Z,55.3
2016-08-12T01:05:52.149Z,55.4
2016-08-12T01:06:02.145Z,55.5
2016-08-12T01:06:12.141Z,55.6
2016-08-12T01:06:22.142Z,55.3
2016-08-12T01:06:32.140Z,55.5
2016-08-12T01:06:42.138Z,55.3
2016-08-12T01:06:52.135Z,55.1
2016-08-12T01:07:02.133Z,54.9
2016-08-12T01:07:12.130Z,55.2
2016-08-12T01:07:22.124Z,55.3
2016-08-12T01:07:32.128Z,55.4
2016-08-12T01:07:42.130Z,55.2
2016-08-12T01:07:52.122Z,55.4
2016-08-12T01:08:02.116Z,55.3
2016-08-12T01:08:12.117Z,55.3
2016-08-12T01:08:22.113Z,55.2
2016-08-12T01:08:32.116Z,55.3
2016-08-12T01:08:42.107Z,55.5
2016-08-12T01:08:52.115Z,55.2
2016-08-12T01:09:02.107Z,55.2
2016-08-12T01:09:12.112Z,55.5
2016-08-12T01:09:22.101Z,55.3
2016-08-12T01:09:32.098Z,55.5
2016-08-12T01:09:42.099Z,55.5
2016-08-12T01:09:52.093Z,55
2016-08-12T01:10:02.090Z,54.9
2016-08-12T01:10:12.095Z,55
2016-08-12T01:10:21.365Z,55.5
2016-08-12T01:10:32.085Z,55.3
2016-08-12T01:10:42.085Z,55.5
2016-08-12T01:10:52.081Z,55.6
2016-08-12T01:11:02.083Z,55.3
2016-08-12T01:11:12.078Z,55.4
2016-08-12T01:11:22.076Z,55.3
2016-08-12T01:11:32.078Z,55.5
2016-08-12T01:11:42.070Z,55.4
2016-08-12T01:11:52.068Z,55.3
2016-08-12T01:12:01.345Z,55.2
2016-08-12T01:12:11.334Z,55.4
2016-08-12T01:12:22.063Z,55.6
2016-08-12T01:12:32.057Z,55.2
2016-08-12T01:12:42.060Z,55.5
2016-08-12T01:12:52.056Z,55.2
2016-08-12T01:13:02.052Z,55.2
2016-08-12T01:13:12.049Z,55.4
2016-08-12T01:13:22.047Z,55.3
2016-08-12T01:13:32.049Z,55.5
2016-08-12T01:13:42.043Z,55.3
2016-08-12T01:13:52.040Z,55.4
2016-08-12T01:14:02.039Z,55.3
2016-08-12T01:14:12.040Z,55.4
2016-08-12T01:14:22.034Z,55.5
2016-08-12T01:14:32.032Z,55.4
2016-08-12T01:14:42.027Z,55.4
2016-08-12T01:14:51.297Z,55.5
2016-08-12T01:15:02.025Z,55.1
2016-08-12T01:15:12.025Z,55.4
2016-08-12T01:15:22.024Z,55.3
2016-08-12T01:15:32.018Z,55.4
2016-08-12T01:15:42.017Z,55.5
2016-08-12T01:15:52.013Z,55.3
2016-08-12T01:16:01.286Z,55.2
2016-08-12T01:16:12.010Z,55.4
2016-08-12T01:16:21.281Z,55.3
2016-08-12T01:16:32.003Z,55.3
2016-08-12T01:16:42.012Z,55.2
2016-08-12T01:16:51.999Z,55.3
2016-08-12T01:17:02.002Z,55.2
2016-08-12T01:17:11.997Z,55.3
2016-08-12T01:17:21.996Z,55.5
2016-08-12T01:17:31.992Z,55.3
2016-08-12T01:17:41.993Z,55.4
2016-08-12T01:17:51.987Z,55.3
2016-08-12T01:18:01.987Z,55.3
2016-08-12T01:18:21.982Z,55.5
2016-08-12T01:18:31.978Z,55.5
2016-08-12T01:18:41.980Z,55.2
2016-08-12T01:18:51.982Z,55.2
2016-08-12T01:19:01.981Z,55.6
2016-08-12T01:19:11.976Z,55.1
2016-08-12T01:19:21.974Z,55.4
2016-08-12T01:19:31.968Z,55.5
2016-08-12T01:19:41.966Z,55.3
2016-08-12T01:19:51.971Z,55.3
2016-08-12T01:20:01.959Z,55.4
2016-08-12T01:20:11.955Z,55.3
2016-08-12T01:20:21.227Z,55.2
2016-08-12T01:20:31.952Z,55.2
2016-08-12T01:20:41.951Z,55.3
2016-08-12T01:20:51.946Z,55.4
2016-08-12T01:21:01.946Z,55.2
2016-08-12T01:21:11.949Z,55.2
2016-08-12T01:21:21.943Z,55.2
2016-08-12T01:21:31.941Z,55.5
2016-08-12T01:21:41.938Z,55.3
2016-08-12T01:21:51.949Z,55.2
2016-08-12T01:22:01.936Z,55.4
2016-08-12T01:22:11.931Z,55.3
2016-08-12T01:22:21.928Z,55.3
2016-08-12T01:22:31.931Z,55.4
2016-08-12T01:22:41.923Z,55.4
2016-08-12T01:22:51.925Z,55.3
2016-08-12T01:23:01.922Z,55.4
2016-08-12T01:23:11.920Z,55.2
2016-08-12T01:23:21.915Z,55.2
2016-08-12T01:23:31.917Z,55.2
2016-08-12T01:23:41.917Z,55.5
2016-08-12T01:23:51.913Z,55.4
2016-08-12T01:24:01.905Z,55.3
2016-08-12T01:24:11.903Z,55.2
2016-08-12T01:24:21.911Z,55.4
2016-08-12T01:24:31.905Z,55
2016-08-12T01:24:41.172Z,55.7
2016-08-12T01:24:51.172Z,55
2016-08-12T01:25:01.897Z,55.3
2016-08-12T01:25:11.891Z,55.4
2016-08-12T01:25:21.888Z,55.3
2016-08-12T01:25:31.888Z,55.1
2016-08-12T01:25:41.887Z,55.2
2016-08-12T01:25:51.882Z,55.3
2016-08-12T01:26:01.882Z,55.4
2016-08-12T01:26:11.884Z,55.3
2016-08-12T01:26:21.143Z,55.2
2016-08-12T01:26:31.873Z,55.2
2016-08-12T01:26:41.872Z,55.2
2016-08-12T01:26:51.879Z,55.1
2016-08-12T01:27:01.870Z,55.4
2016-08-12T01:27:11.867Z,55.3
2016-08-12T01:27:21.862Z,55.2
2016-08-12T01:27:31.864Z,55.2
2016-08-12T01:27:41.859Z,55
2016-08-12T01:27:51.856Z,55.4
2016-08-12T01:28:01.872Z,55
2016-08-12T01:28:11.855Z,55.4
2016-08-12T01:28:21.853Z,55.3
2016-08-12T01:28:31.849Z,55.4
2016-08-12T01:28:41.844Z,55.2
2016-08-12T01:28:51.117Z,54.9
2016-08-12T01:29:01.841Z,55.4
2016-08-12T01:29:11.842Z,55.4
2016-08-12T01:29:21.843Z,55
2016-08-12T01:29:31.841Z,55
2016-08-12T01:29:41.835Z,55.4
2016-08-12T01:29:51.828Z,55.7
2016-08-12T01:30:01.828Z,55.4
2016-08-12T01:30:11.829Z,55
2016-08-12T01:30:21.826Z,55
2016-08-12T01:30:31.823Z,55.9
2016-08-12T01:30:41.822Z,55
2016-08-12T01:30:51.819Z,55
2016-08-12T01:31:01.815Z,55.7
2016-08-12T01:31:11.813Z,55.4
2016-08-12T01:31:21.810Z,55.9
2016-08-12T01:31:31.809Z,55.9
2016-08-12T01:31:41.808Z,55.8
2016-08-12T01:31:51.075Z,55.9
2016-08-12T01:32:01.078Z,55.6
2016-08-12T01:32:11.797Z,55
2016-08-12T01:32:21.799Z,55.4
2016-08-12T01:32:31.797Z,55.5
2016-08-12T01:32:41.794Z,55
2016-08-12T01:32:51.794Z,55.9
2016-08-12T01:33:01.788Z,55.8
2016-08-12T01:33:11.793Z,55.7
2016-08-12T01:33:21.791Z,55.8
2016-08-12T01:33:41.780Z,55
2016-08-12T01:33:51.777Z,55
2016-08-12T01:34:01.049Z,55
2016-08-12T01:34:11.774Z,55.5
2016-08-12T01:34:21.773Z,55
2016-08-12T01:34:31.776Z,55
2016-08-12T01:34:41.767Z,55
2016-08-12T01:34:51.764Z,55.5
2016-08-12T01:35:01.766Z,55.2
2016-08-12T01:35:11.759Z,55.9
2016-08-12T01:35:21.763Z,55.9
2016-08-12T01:35:31.753Z,55.9
2016-08-12T01:35:41.753Z,55.9
2016-08-12T01:35:51.751Z,56
2016-08-12T01:36:01.749Z,56.1
2016-08-12T01:36:11.746Z,56.1
2016-08-12T01:36:21.746Z,56
2016-08-12T01:36:31.744Z,56
2016-08-12T01:36:41.743Z,56
2016-08-12T01:36:51.744Z,56.1
2016-08-12T01:37:01.737Z,55.8
2016-08-12T01:37:11.742Z,55.8
2016-08-12T01:37:21.733Z,55.8
2016-08-12T01:37:31.001Z,56.1
2016-08-12T01:37:41.728Z,56
2016-08-12T01:37:51.726Z,55.8
2016-08-12T01:38:01.722Z,55.7
2016-08-12T01:38:10.997Z,55.8
2016-08-12T01:38:21.721Z,55.9
2016-08-12T01:38:31.717Z,56.1
2016-08-12T01:38:41.715Z,55.9
2016-08-12T01:38:51.716Z,55.8
2016-08-12T01:39:01.718Z,55.7
2016-08-12T01:39:11.707Z,56
2016-08-12T01:39:21.705Z,55.8
2016-08-12T01:39:31.701Z,55.9
2016-08-12T01:39:41.707Z,56
2016-08-12T01:39:51.702Z,56.1
2016-08-12T01:40:01.698Z,56
2016-08-12T01:40:11.695Z,55.7
2016-08-12T01:40:21.692Z,55.8
2016-08-12T01:40:31.688Z,56
2016-08-12T01:40:41.686Z,56
2016-08-12T01:40:50.958Z,55.9
2016-08-12T01:41:01.684Z,55.7
2016-08-12T01:41:11.681Z,55.7
2016-08-12T01:41:21.681Z,55.8
2016-08-12T01:41:31.680Z,55.9
2016-08-12T01:41:41.679Z,55.7
2016-08-12T01:41:51.672Z,55.8
2016-08-12T01:42:01.672Z,56.1
2016-08-12T01:42:10.941Z,56.1
2016-08-12T01:42:21.667Z,56
2016-08-12T01:42:31.662Z,56
2016-08-12T01:42:41.661Z,55.9
2016-08-12T01:42:51.666Z,55.7
2016-08-12T01:43:01.666Z,55.6
2016-08-12T01:43:11.654Z,55.8
2016-08-12T01:43:21.657Z,55.8
2016-08-12T01:43:30.924Z,56
2016-08-12T01:43:41.650Z,56.1
2016-08-12T01:43:51.645Z,55.8
2016-08-12T01:44:01.645Z,55.7
2016-08-12T01:44:11.641Z,55.8
2016-08-12T01:44:21.644Z,55.8
2016-08-12T01:44:31.635Z,56
2016-08-12T01:44:41.636Z,56
2016-08-12T01:44:51.634Z,56
2016-08-12T01:45:01.634Z,55.9
2016-08-12T01:45:11.631Z,56
2016-08-12T01:45:21.624Z,55.9
2016-08-12T01:45:31.628Z,56.1
2016-08-12T01:45:41.624Z,55.2
2016-08-12T01:45:51.617Z,55.9
2016-08-12T01:46:01.620Z,56
2016-08-12T01:46:11.615Z,56
2016-08-12T01:46:21.612Z,56.1
2016-08-12T01:46:31.610Z,55.9
2016-08-12T01:46:41.613Z,56
2016-08-12T01:46:51.611Z,56.2
2016-08-12T01:47:01.607Z,56.1
2016-08-12T01:47:11.601Z,56
2016-08-12T01:47:21.598Z,56
2016-08-12T01:47:31.602Z,56
2016-08-12T01:47:41.596Z,55.9
2016-08-12T01:47:51.597Z,56
2016-08-12T01:48:01.593Z,55.8
2016-08-12T01:48:11.599Z,55.9
2016-08-12T01:48:41.579Z,55.6
2016-08-12T01:48:51.582Z,55.8
2016-08-12T01:49:01.577Z,55.9
2016-08-12T01:49:11.581Z,55.7
2016-08-12T01:49:21.577Z,56
2016-08-12T01:49:31.573Z,56
2016-08-12T01:49:41.574Z,56
2016-08-12T01:49:51.572Z,56
2016-08-12T01:50:01.566Z,56
2016-08-12T01:50:11.564Z,55.9
2016-08-12T01:50:21.559Z,55.9
2016-08-12T01:50:31.560Z,56.1
2016-08-12T01:50:41.558Z,55.7
2016-08-12T01:50:51.554Z,55.8
2016-08-12T01:51:01.553Z,55.8
2016-08-12T01:51:11.552Z,56
2016-08-12T01:51:21.545Z,55.9
2016-08-12T01:51:31.544Z,55.8
2016-08-12T01:51:41.543Z,55.8
2016-08-12T01:51:51.540Z,55.8
2016-08-12T01:52:01.539Z,55.8
2016-08-12T01:52:11.537Z,55.7
2016-08-12T01:52:21.537Z,56.2
2016-08-12T01:52:31.543Z,56
2016-08-12T01:52:41.532Z,55.7
2016-08-12T01:52:51.531Z,55.9
2016-08-12T01:53:01.526Z,56.1
2016-08-12T01:53:11.523Z,55.8
2016-08-12T01:53:21.523Z,55.9
2016-08-12T01:53:31.522Z,56
2016-08-12T01:53:41.516Z,55.6
2016-08-12T01:53:51.518Z,55.7
2016-08-12T01:54:01.511Z,55.9
2016-08-12T01:54:11.512Z,55.9
2016-08-12T01:54:21.507Z,55.6
2016-08-12T01:54:31.509Z,55.8
2016-08-12T01:54:41.508Z,55.9
2016-08-12T01:54:51.501Z,55.7
2016-08-12T01:55:01.504Z,55.6
2016-08-12T01:55:11.501Z,55.7
2016-08-12T01:55:21.496Z,55.7
2016-08-12T01:55:31.492Z,55.7
2016-08-12T01:55:41.490Z,55.8
2016-08-12T01:55:51.487Z,55.9
2016-08-12T01:56:00.760Z,55.9
2016-08-12T01:56:11.482Z,55.9
2016-08-12T01:56:21.487Z,55.8
2016-08-12T01:56:31.482Z,56
2016-08-12T01:56:41.480Z,55.9
2016-08-12T01:56:51.474Z,55.8
2016-08-12T01:57:01.478Z,55.9
2016-08-12T01:57:11.472Z,55.9
2016-08-12T01:57:21.471Z,55.6
2016-08-12T01:57:31.466Z,56
2016-08-12T01:57:41.468Z,55.9
2016-08-12T01:57:51.469Z,55.5
2016-08-12T01:58:00.740Z,55.8
2016-08-12T01:58:11.457Z,55.7
2016-08-12T01:58:21.463Z,55.7
2016-08-12T01:58:31.454Z,55.7
2016-08-12T01:58:40.719Z,55.8
2016-08-12T01:58:51.456Z,55.9
2016-08-12T01:59:01.453Z,55.8
2016-08-12T01:59:11.444Z,55.6
2016-08-12T01:59:21.446Z,55.6
2016-08-12T01:59:31.443Z,55.6
2016-08-12T01:59:41.444Z,55.7
2016-08-12T01:59:51.439Z,55.9
2016-08-12T02:00:01.432Z,55.6
2016-08-12T02:00:11.431Z,55.6
2016-08-12T02:00:21.437Z,55.9
2016-08-12T02:00:31.426Z,55.8
2016-08-12T02:00:41.422Z,55.8
2016-08-12T02:00:51.429Z,55.6
2016-08-12T02:01:01.420Z,55.5
2016-08-12T02:01:11.421Z,55.6
2016-08-12T02:01:21.418Z,55.8
2016-08-12T02:01:31.419Z,55.8
2016-08-12T02:01:41.409Z,55.9
2016-08-12T02:01:51.408Z,55.9
2016-08-12T02:02:01.409Z,55.9
2016-08-12T02:02:10.679Z,55.9
2016-08-12T02:02:21.405Z,55.7
2016-08-12T02:02:31.402Z,55.7
2016-08-12T02:02:41.400Z,55.8
2016-08-12T02:02:51.398Z,55.8
2016-08-12T02:03:01.397Z,55.9
2016-08-12T02:03:11.389Z,55.9
2016-08-12T02:03:21.389Z,55.4
2016-08-12T02:03:41.389Z,55.6
2016-08-12T02:03:51.381Z,55.8
2016-08-12T02:04:01.382Z,55.6
2016-08-12T02:04:11.384Z,55.6
2016-08-12T02:04:21.377Z,55.6
2016-08-12T02:04:31.375Z,55.9
2016-08-12T02:04:41.371Z,55.6
2016-08-12T02:04:51.379Z,55.6
2016-08-12T02:05:01.367Z,56
2016-08-12T02:05:11.366Z,55.5
2016-08-12T02:05:21.365Z,56
2016-08-12T02:05:31.363Z,55.5
2016-08-12T02:05:41.358Z,55.9
2016-08-12T02:05:51.363Z,55.6
2016-08-12T02:06:01.354Z,55.8
2016-08-12T02:06:11.355Z,55.6
2016-08-12T02:06:21.351Z,56
2016-08-12T02:06:31.348Z,55.6
2016-08-12T02:06:41.349Z,55.9
2016-08-12T02:06:51.344Z,55.6
2016-08-12T02:07:01.343Z,55.5
2016-08-12T02:07:11.340Z,55.8
2016-08-12T02:07:21.344Z,55.6
2016-08-12T02:07:31.333Z,55.8
2016-08-12T02:07:41.332Z,55.9
2016-08-12T02:07:51.332Z,55.9
2016-08-12T02:08:01.325Z,55.8
2016-08-12T02:08:11.326Z,55.6
2016-08-12T02:08:21.325Z,55.4
2016-08-12T02:08:31.322Z,56
2016-08-12T02:08:41.323Z,55.9
2016-08-12T02:08:50.591Z,56.1
2016-08-12T02:09:01.314Z,55.8
2016-08-12T02:09:10.588Z,55.9
2016-08-12T02:09:21.315Z,55.8
2016-08-12T02:09:31.311Z,55.9
2016-08-12T02:09:41.314Z,56
2016-08-12T02:09:51.304Z,55.8
2016-08-12T02:10:00.571Z,56
2016-08-12T02:10:11.303Z,55.9
2016-08-12T02:10:21.298Z,55.8
2016-08-12T02:10:31.300Z,55.8
2016-08-12T02:10:41.298Z,55.9
2016-08-12T02:10:51.291Z,55.8
2016-08-12T02:11:00.563Z,56
2016-08-12T02:11:11.286Z,56
2016-08-12T02:11:21.283Z,56
2016-08-12T02:11:31.283Z,56
2016-08-12T02:11:41.282Z,56
2016-08-12T02:11:51.278Z,55.8
2016-08-12T02:12:01.272Z,56
2016-08-12T02:12:11.274Z,55.8
2016-08-12T02:12:21.275Z,56.2
2016-08-12T02:12:31.270Z,56.1
2016-08-12T02:12:41.265Z,55.9
2016-08-12T02:12:51.276Z,55.8
2016-08-12T02:13:01.262Z,55.8
2016-08-12T02:13:11.265Z,55.9
2016-08-12T02:13:21.255Z,56
2016-08-12T02:13:31.255Z,55.9
2016-08-12T02:13:41.251Z,55.8
2016-08-12T02:13:51.253Z,55.7
2016-08-12T02:14:01.249Z,56
2016-08-12T02:14:11.248Z,56
2016-08-12T02:14:21.250Z,56.3
2016-08-12T02:14:31.241Z,56
2016-08-12T02:14:41.246Z,55.7
2016-08-12T02:14:51.237Z,56
2016-08-12T02:15:01.236Z,55.9
2016-08-12T02:15:10.502Z,55.8
2016-08-12T02:15:21.231Z,55.8
2016-08-12T02:15:31.231Z,55.9
2016-08-12T02:15:41.229Z,56.2
2016-08-12T02:15:51.225Z,56.4
2016-08-12T02:16:01.222Z,56.2